createdAt,value
2023-04-16T00:00:18.768Z,8.55
2023-04-16T00:02:45.248Z,10.70
2023-04-16T00:05:11.778Z,14.57
2023-04-16T00:07:38.238Z,8.10
2023-04-16T00:10:04.776Z,10.63
2023-04-16T00:12:31.093Z,9.65
2023-04-16T00:14:57.579Z,7.82
2023-04-16T00:17:23.959Z,9.88
2023-04-16T00:19:50.518Z,9.60
2023-04-16T00:22:16.888Z,8.75
2023-04-16T00:24:43.217Z,12.52
2023-04-16T00:27:09.556Z,8.15
2023-04-16T00:29:35.923Z,10.60
2023-04-16T00:32:02.489Z,10.32
2023-04-16T00:34:28.819Z,8.38
2023-04-16T00:36:55.111Z,11.25
2023-04-16T00:39:21.442Z,10.68
2023-04-16T00:41:49.210Z,6.80
2023-04-16T00:44:15.573Z,7.47
2023-04-16T00:46:42.462Z,6.93
2023-04-16T00:49:09.876Z,6.38
2023-04-16T00:51:36.789Z,11.13
2023-04-16T00:54:03.630Z,8.27
2023-04-16T00:56:30.569Z,7.53
2023-04-16T00:58:56.889Z,8.20
2023-04-16T01:01:23.385Z,7.10
2023-04-16T01:03:49.988Z,10.23
2023-04-16T01:06:17.324Z,12.52
2023-04-16T01:08:43.773Z,7.68
2023-04-16T01:11:10.807Z,11.35
2023-04-16T01:13:40.240Z,9.55
2023-04-16T01:16:08.001Z,12.82
2023-04-16T01:18:34.899Z,12.85
2023-04-16T01:21:01.382Z,14.15
2023-04-16T01:23:27.685Z,7.40
2023-04-16T01:25:54.010Z,10.75
2023-04-16T01:28:20.422Z,12.90
2023-04-16T01:30:46.885Z,8.77
2023-04-16T01:33:13.725Z,11.57
2023-04-16T01:35:41.107Z,11.07
2023-04-16T01:38:08.388Z,9.80
2023-04-16T01:40:35.312Z,17.88
2023-04-16T01:43:01.624Z,9.73
2023-04-16T01:45:28.035Z,12.75
2023-04-16T01:47:54.384Z,13.02
2023-04-16T01:50:21.364Z,15.05
2023-04-16T01:52:47.622Z,12.55
2023-04-16T01:55:13.896Z,10.82
2023-04-16T01:57:40.294Z,13.13
2023-04-16T02:00:08.346Z,12.75
2023-04-16T02:02:35.471Z,14.82
2023-04-16T02:05:02.064Z,15.30
2023-04-16T02:07:28.521Z,15.70
2023-04-16T02:09:54.903Z,16.92
2023-04-16T02:12:21.303Z,20.88
2023-04-16T02:14:47.604Z,13.98
2023-04-16T02:17:15.253Z,17.60
2023-04-16T02:19:41.680Z,16.85
2023-04-16T02:22:08.038Z,20.55
2023-04-16T02:24:34.357Z,19.75
2023-04-16T02:27:00.820Z,15.57
2023-04-16T02:29:27.142Z,15.63
2023-04-16T02:31:53.554Z,18.30
2023-04-16T02:34:19.965Z,17.05
2023-04-16T02:36:46.342Z,16.63
2023-04-16T02:39:12.628Z,20.65
2023-04-16T02:41:39.208Z,21.20
2023-04-16T02:44:05.697Z,19.50
2023-04-16T02:46:32.051Z,16.08
2023-04-16T02:48:58.487Z,18.48
2023-04-16T02:51:24.824Z,20.45
2023-04-16T02:53:51.158Z,18.65
2023-04-16T02:56:17.470Z,21.92
2023-04-16T02:58:43.801Z,20.45
2023-04-16T03:01:10.381Z,18.88
2023-04-16T03:03:36.772Z,21.92
2023-04-16T03:06:03.246Z,16.27
2023-04-16T03:08:29.597Z,21.70
2023-04-16T03:10:55.959Z,19.15
2023-04-16T03:13:22.395Z,23.27
2023-04-16T03:15:51.718Z,23.40
2023-04-16T03:18:18.094Z,23.10
2023-04-16T03:20:44.519Z,21.38
2023-04-16T03:23:10.902Z,23.42
2023-04-16T03:25:37.226Z,18.02
2023-04-16T03:28:03.964Z,23.67
2023-04-16T03:30:30.660Z,23.70
2023-04-16T03:32:57.026Z,25.08
2023-04-16T03:35:23.527Z,24.88
2023-04-16T03:37:50.471Z,22.05
2023-04-16T03:40:16.784Z,22.83
2023-04-16T03:42:43.126Z,23.10
2023-04-16T03:45:09.545Z,19.25
2023-04-16T03:47:36.077Z,18.60
2023-04-16T03:50:02.468Z,23.50
2023-04-16T03:52:28.819Z,23.83
2023-04-16T03:54:55.167Z,17.92
2023-04-16T03:57:21.490Z,18.90
2023-04-16T03:59:47.812Z,21.52
2023-04-16T04:02:14.172Z,21.13
2023-04-16T04:04:40.957Z,20.90
2023-04-16T04:07:07.550Z,18.88
2023-04-16T04:09:33.991Z,19.10
2023-04-16T04:12:00.776Z,26.02
2023-04-16T04:14:27.044Z,20.77
2023-04-16T04:16:53.310Z,28.98
2023-04-16T04:19:19.584Z,19.13
2023-04-16T04:21:45.849Z,29.00
2023-04-16T04:24:12.162Z,28.27
2023-04-16T04:26:38.426Z,23.63
2023-04-16T04:29:04.705Z,21.02
2023-04-16T04:31:31.265Z,25.23
2023-04-16T04:33:57.594Z,21.25
2023-04-16T04:36:23.888Z,26.35
2023-04-16T04:38:50.263Z,21.65
2023-04-16T04:41:16.708Z,25.08
2023-04-16T04:43:42.959Z,23.88
2023-04-16T04:46:09.313Z,29.88
2023-04-16T04:48:35.954Z,34.67
2023-04-16T04:51:05.305Z,25.13
2023-04-16T04:53:31.837Z,25.27
2023-04-16T04:56:05.486Z,19.30
2023-04-16T04:58:38.321Z,30.45
2023-04-16T05:01:04.843Z,28.73
2023-04-16T05:03:31.632Z,22.73
2023-04-16T05:05:58.178Z,19.52
2023-04-16T05:08:24.491Z,26.70
2023-04-16T05:10:51.150Z,23.40
2023-04-16T05:13:17.467Z,23.38
2023-04-16T05:15:44.995Z,24.45
2023-04-16T05:18:11.421Z,21.45
2023-04-16T05:20:37.905Z,24.60
2023-04-16T05:23:04.194Z,31.15
2023-04-16T05:25:30.839Z,22.48
2023-04-16T05:27:57.285Z,24.20
2023-04-16T05:30:23.614Z,31.17
2023-04-16T05:32:49.941Z,25.90
2023-04-16T05:35:17.667Z,23.00
2023-04-16T05:37:44.246Z,25.52
2023-04-16T05:40:11.900Z,24.90
2023-04-16T05:42:38.151Z,27.23
2023-04-16T05:45:04.964Z,27.30
2023-04-16T05:47:31.287Z,21.58
2023-04-16T05:49:57.733Z,25.55
2023-04-16T05:52:24.063Z,26.52
2023-04-16T05:54:50.420Z,28.90
2023-04-16T05:57:16.741Z,22.80
2023-04-16T05:59:43.096Z,31.83
2023-04-16T06:02:09.484Z,25.08
2023-04-16T06:04:36.009Z,32.15
2023-04-16T06:07:02.414Z,26.48
2023-04-16T06:09:29.409Z,23.05
2023-04-16T06:11:56.281Z,31.13
2023-04-16T06:14:22.571Z,22.63
2023-04-16T06:16:49.269Z,25.42
2023-04-16T06:19:15.573Z,25.08
2023-04-16T06:21:41.951Z,30.92
2023-04-16T06:24:08.271Z,31.05
2023-04-16T06:26:34.561Z,26.70
2023-04-16T06:29:01.024Z,25.80
2023-04-16T06:31:27.386Z,28.08
2023-04-16T06:33:53.724Z,28.52
2023-04-16T06:36:20.258Z,24.33
2023-04-16T06:38:46.631Z,26.77
2023-04-16T06:41:14.012Z,27.85
2023-04-16T06:43:40.537Z,22.67
2023-04-16T06:46:06.802Z,25.30
2023-04-16T06:48:33.131Z,28.58
2023-04-16T06:51:00.391Z,24.75
2023-04-16T06:53:26.724Z,30.17
2023-04-16T06:55:53.046Z,22.80
2023-04-16T06:58:19.447Z,29.52
2023-04-16T07:00:45.983Z,30.95
2023-04-16T07:03:12.579Z,26.52
2023-04-16T07:05:39.032Z,26.77
2023-04-16T07:08:05.385Z,27.40
2023-04-16T07:10:31.750Z,31.00
2023-04-16T07:12:58.189Z,26.92
2023-04-16T07:15:24.562Z,25.60
2023-04-16T07:17:50.995Z,34.08
2023-04-16T07:20:17.384Z,24.40
2023-04-16T07:22:43.866Z,24.60
2023-04-16T07:25:10.367Z,30.95
2023-04-16T07:27:36.664Z,31.98
2023-04-16T07:30:02.989Z,31.70
2023-04-16T07:32:29.286Z,26.80
2023-04-16T07:34:56.083Z,27.75
2023-04-16T07:37:22.719Z,29.83
2023-04-16T07:39:49.156Z,27.55
2023-04-16T07:42:15.543Z,23.38
2023-04-16T07:44:41.931Z,26.15
2023-04-16T07:47:08.207Z,27.15
2023-04-16T07:49:34.527Z,27.60
2023-04-16T07:52:00.924Z,25.42
2023-04-16T07:54:28.982Z,25.70
2023-04-16T07:56:55.648Z,24.60
2023-04-16T07:59:24.022Z,24.60
2023-04-16T08:01:52.622Z,27.58
2023-04-16T08:04:24.417Z,27.75
2023-04-16T08:06:51.620Z,24.67
2023-04-16T08:09:19.027Z,19.92
2023-04-16T08:11:45.557Z,22.17
2023-04-16T08:14:11.990Z,22.92
2023-04-16T08:16:38.861Z,21.13
2023-04-16T08:19:05.583Z,24.63
2023-04-16T08:21:32.034Z,23.67
2023-04-16T08:23:58.468Z,23.27
2023-04-16T08:26:24.787Z,19.70
2023-04-16T08:28:51.159Z,18.83
2023-04-16T08:31:17.563Z,22.58
2023-04-16T08:33:43.967Z,19.65
2023-04-16T08:36:10.332Z,15.45
2023-04-16T08:38:36.786Z,15.52
2023-04-16T08:41:05.773Z,17.65
2023-04-16T08:43:37.521Z,15.75
2023-04-16T08:46:04.798Z,17.67
2023-04-16T08:48:33.407Z,14.18
2023-04-16T08:51:00.459Z,16.50
2023-04-16T08:53:35.311Z,15.25
2023-04-16T08:56:03.689Z,15.40
2023-04-16T08:58:31.898Z,19.02
2023-04-16T09:00:58.341Z,14.98
2023-04-16T09:03:24.845Z,13.65
2023-04-16T09:05:51.782Z,15.95
2023-04-16T09:08:18.410Z,14.63
2023-04-16T09:10:44.834Z,14.85
2023-04-16T09:13:13.411Z,14.20
2023-04-16T09:15:40.024Z,12.07
2023-04-16T09:18:06.453Z,12.73
2023-04-16T09:20:32.801Z,12.85
2023-04-16T09:22:59.314Z,11.65
2023-04-16T09:25:26.366Z,14.65
2023-04-16T09:27:52.692Z,15.15
2023-04-16T09:30:24.353Z,10.38
2023-04-16T09:32:51.538Z,12.85
2023-04-16T09:35:18.900Z,14.15
2023-04-16T09:37:54.591Z,12.45
2023-04-16T09:40:24.133Z,13.35
2023-04-16T09:42:50.597Z,13.52
2023-04-16T09:45:16.919Z,11.68
2023-04-16T09:47:44.216Z,13.60
2023-04-16T09:50:15.819Z,13.20
2023-04-16T09:52:44.788Z,12.48
2023-04-16T09:55:11.175Z,13.65
2023-04-16T09:57:38.214Z,11.90
2023-04-16T10:00:06.087Z,11.95
2023-04-16T10:02:34.595Z,12.40
2023-04-16T10:05:01.890Z,13.88
2023-04-16T10:07:29.034Z,15.65
2023-04-16T10:09:55.970Z,16.17
2023-04-16T10:12:22.288Z,13.52
2023-04-16T10:14:50.053Z,11.55
2023-04-16T10:17:16.870Z,13.18
2023-04-16T10:19:43.830Z,13.52
2023-04-16T10:22:11.292Z,14.48
2023-04-16T10:24:38.155Z,12.07
2023-04-16T10:27:04.539Z,13.93
2023-04-16T10:29:31.563Z,11.93
2023-04-16T10:31:58.386Z,16.02
2023-04-16T10:34:24.979Z,12.52
2023-04-16T10:36:53.103Z,16.83
2023-04-16T10:39:21.192Z,14.07
2023-04-16T10:41:47.629Z,16.25
2023-04-16T10:44:16.401Z,19.33
2023-04-16T10:46:43.607Z,16.48
2023-04-16T10:49:15.090Z,16.85
2023-04-16T10:51:41.895Z,17.05
2023-04-16T10:54:08.152Z,19.02
2023-04-16T10:56:35.646Z,16.67
2023-04-16T10:59:06.010Z,17.33
2023-04-16T11:01:34.093Z,18.80
2023-04-16T11:04:21.195Z,19.23
2023-04-16T11:07:01.921Z,15.57
2023-04-16T11:09:47.146Z,20.95
2023-04-16T11:12:14.714Z,22.30
2023-04-16T11:14:41.966Z,14.05
2023-04-16T11:17:08.849Z,18.40
2023-04-16T11:19:38.392Z,19.10
2023-04-16T11:22:05.157Z,24.05
2023-04-16T11:24:32.322Z,20.85
2023-04-16T11:26:58.776Z,21.77
2023-04-16T11:29:25.372Z,18.77
2023-04-16T11:31:52.273Z,22.15
2023-04-16T11:34:19.013Z,20.13
2023-04-16T11:36:46.075Z,22.38
2023-04-16T11:39:12.678Z,18.23
2023-04-16T11:41:42.664Z,21.67
2023-04-16T11:44:16.920Z,19.38
2023-04-16T11:46:43.437Z,17.60
2023-04-16T11:49:10.208Z,16.48
2023-04-16T11:51:47.319Z,18.98
2023-04-16T11:54:20.434Z,18.40
2023-04-16T11:56:50.354Z,17.05
2023-04-16T11:59:17.994Z,23.10
2023-04-16T12:01:48.343Z,18.38
2023-04-16T12:04:16.091Z,19.40
2023-04-16T12:07:01.234Z,23.83
2023-04-16T12:09:27.544Z,25.13
2023-04-16T12:11:54.152Z,19.20
2023-04-16T12:14:20.569Z,18.60
2023-04-16T12:16:47.364Z,19.45
2023-04-16T12:19:13.892Z,22.52
2023-04-16T12:21:41.351Z,21.25
2023-04-16T12:24:08.983Z,17.83
2023-04-16T12:26:42.702Z,16.35
2023-04-16T12:29:19.791Z,21.02
2023-04-16T12:31:46.594Z,14.50
2023-04-16T12:34:15.000Z,18.42
2023-04-16T12:36:42.111Z,20.45
2023-04-16T12:39:09.074Z,21.33
2023-04-16T12:41:36.883Z,20.80
2023-04-16T12:44:09.113Z,17.55
2023-04-16T12:46:36.793Z,19.80
2023-04-16T12:49:03.536Z,18.45
2023-04-16T12:51:29.878Z,16.98
2023-04-16T12:53:56.261Z,17.95
2023-04-16T12:56:22.724Z,14.98
2023-04-16T12:58:51.858Z,17.33
2023-04-16T13:01:18.840Z,19.08
2023-04-16T13:03:45.868Z,17.17
2023-04-16T13:06:13.464Z,17.10
2023-04-16T13:08:40.422Z,16.33
2023-04-16T13:11:07.739Z,16.58
2023-04-16T13:13:34.395Z,17.98
2023-04-16T13:16:00.872Z,16.70
2023-04-16T13:18:27.919Z,21.08
2023-04-16T13:20:54.330Z,20.20
2023-04-16T13:23:20.694Z,20.67
2023-04-16T13:25:47.982Z,22.90
2023-04-16T13:28:16.327Z,19.83
2023-04-16T13:30:42.843Z,21.88
2023-04-16T13:33:09.292Z,19.77
2023-04-16T13:35:35.802Z,20.67
2023-04-16T13:38:02.165Z,21.83
2023-04-16T13:40:28.824Z,23.13
2023-04-16T13:42:55.175Z,26.25
2023-04-16T13:45:21.592Z,26.27
2023-04-16T13:47:48.100Z,23.92
2023-04-16T13:50:14.504Z,40.00
2023-04-16T13:52:41.110Z,34.03
2023-04-16T13:55:09.417Z,23.25
2023-04-16T13:57:35.717Z,22.33
2023-04-16T14:00:02.937Z,25.77
2023-04-16T14:02:29.364Z,24.25
2023-04-16T14:04:55.752Z,23.88
2023-04-16T14:07:25.677Z,27.40
2023-04-16T14:09:51.985Z,23.90
2023-04-16T14:12:18.439Z,24.15
2023-04-16T14:14:44.847Z,21.30
2023-04-16T14:17:11.325Z,21.23
2023-04-16T14:19:37.673Z,18.67
2023-04-16T14:22:04.004Z,19.33
2023-04-16T14:24:30.413Z,18.40
2023-04-16T14:26:56.824Z,16.33
2023-04-16T14:29:23.097Z,19.88
2023-04-16T14:31:50.409Z,19.67
2023-04-16T14:34:16.858Z,21.23
2023-04-16T14:36:44.171Z,20.30
2023-04-16T14:39:11.390Z,17.55
2023-04-16T14:41:37.879Z,19.23
2023-04-16T14:44:06.038Z,21.50
2023-04-16T14:46:33.749Z,19.52
2023-04-16T14:49:00.123Z,20.02
2023-04-16T14:51:27.377Z,21.02
2023-04-16T14:53:53.722Z,15.85
2023-04-16T14:56:20.086Z,21.65
2023-04-16T14:58:46.392Z,19.75
2023-04-16T15:01:14.709Z,17.52
2023-04-16T15:03:41.840Z,22.52
2023-04-16T15:06:08.763Z,18.42
2023-04-16T15:08:35.446Z,16.77
2023-04-16T15:11:01.913Z,26.33
2023-04-16T15:13:33.928Z,18.42
2023-04-16T15:16:01.418Z,16.02
2023-04-16T15:18:29.398Z,17.75
2023-04-16T15:20:55.807Z,21.00
2023-04-16T15:23:22.592Z,19.35
2023-04-16T15:25:48.917Z,20.40
2023-04-16T15:28:15.883Z,19.15
2023-04-16T15:30:42.336Z,16.17
2023-04-16T15:33:08.978Z,18.58
2023-04-16T15:35:35.849Z,18.80
2023-04-16T15:38:04.682Z,20.42
2023-04-16T15:40:31.101Z,22.52
2023-04-16T15:42:57.519Z,18.92
2023-04-16T15:45:23.962Z,19.17
2023-04-16T15:47:51.384Z,20.17
2023-04-16T15:50:18.240Z,23.27
2023-04-16T15:52:44.903Z,22.10
2023-04-16T15:55:11.552Z,23.05
2023-04-16T15:57:37.851Z,20.17
2023-04-16T16:00:13.384Z,22.77
2023-04-16T16:02:40.367Z,21.23
2023-04-16T16:05:09.296Z,41.33
2023-04-16T16:07:35.607Z,32.80
2023-04-16T16:10:02.098Z,23.55
2023-04-16T16:12:28.702Z,24.10
2023-04-16T16:14:55.311Z,18.15
2023-04-16T16:17:21.687Z,19.20
2023-04-16T16:19:48.246Z,19.98
2023-04-16T16:22:15.982Z,18.67
2023-04-16T16:24:42.376Z,20.38
2023-04-16T16:27:08.862Z,25.00
2023-04-16T16:29:35.129Z,22.25
2023-04-16T16:32:01.461Z,33.17
2023-04-16T16:34:28.213Z,20.45
2023-04-16T16:36:54.512Z,22.27
2023-04-16T16:39:24.365Z,19.42
2023-04-16T16:41:52.484Z,23.13
2023-04-16T16:44:19.359Z,19.17
2023-04-16T16:46:45.691Z,25.70
2023-04-16T16:49:12.205Z,23.60
2023-04-16T16:51:38.738Z,22.23
2023-04-16T16:54:05.803Z,27.58
2023-04-16T16:56:32.118Z,22.10
2023-04-16T16:58:58.472Z,27.50
2023-04-16T17:01:25.592Z,24.85
2023-04-16T17:03:52.173Z,20.63
2023-04-16T17:06:18.674Z,22.25
2023-04-16T17:08:46.167Z,27.52
2023-04-16T17:11:12.446Z,24.05
2023-04-16T17:13:38.710Z,23.77
2023-04-16T17:16:05.347Z,24.45
2023-04-16T17:18:31.670Z,31.67
2023-04-16T17:20:57.997Z,20.40
2023-04-16T17:23:24.319Z,26.33
2023-04-16T17:25:50.669Z,25.75
2023-04-16T17:28:17.225Z,25.67
2023-04-16T17:30:43.712Z,28.83
2023-04-16T17:33:10.118Z,29.33
2023-04-16T17:35:36.551Z,31.60
2023-04-16T17:38:02.925Z,29.13
2023-04-16T17:40:29.362Z,29.45
2023-04-16T17:42:55.804Z,22.60
2023-04-16T17:45:22.143Z,24.00
2023-04-16T17:47:48.481Z,25.80
2023-04-16T17:50:14.865Z,26.98
2023-04-16T17:52:41.251Z,23.42
2023-04-16T17:55:07.762Z,22.58
2023-04-16T17:57:34.062Z,21.40
2023-04-16T18:00:00.411Z,21.77
2023-04-16T18:02:27.084Z,21.73
2023-04-16T18:04:53.759Z,23.92
2023-04-16T18:07:20.224Z,25.17
2023-04-16T18:09:46.555Z,21.58
2023-04-16T18:12:13.076Z,22.25
2023-04-16T18:14:40.618Z,30.48
2023-04-16T18:17:06.996Z,22.45
2023-04-16T18:19:33.360Z,22.85
2023-04-16T18:21:59.675Z,22.20
2023-04-16T18:24:25.999Z,23.13
2023-04-16T18:29:19.142Z,22.88
2023-04-16T18:31:45.749Z,22.45
2023-04-16T18:34:12.572Z,21.67
2023-04-16T18:36:39.125Z,23.15
2023-04-16T18:39:07.381Z,21.92
2023-04-16T18:41:33.698Z,26.70
2023-04-16T18:44:00.069Z,22.88
2023-04-16T18:46:27.507Z,26.35
2023-04-16T18:48:54.297Z,28.63
2023-04-16T18:51:21.187Z,30.48
2023-04-16T18:53:47.712Z,28.33
2023-04-16T18:56:14.188Z,29.48
2023-04-16T18:58:40.788Z,29.58
2023-04-16T19:01:12.959Z,31.08
2023-04-16T19:03:39.549Z,26.73
2023-04-16T19:06:06.230Z,31.10
2023-04-16T19:08:32.652Z,30.70
2023-04-16T19:10:58.964Z,28.38
2023-04-16T19:13:25.394Z,31.15
2023-04-16T19:15:51.791Z,28.33
2023-04-16T19:18:18.105Z,30.88
2023-04-16T19:20:44.458Z,29.35
2023-04-16T19:23:11.482Z,30.38
2023-04-16T19:25:39.281Z,26.77
2023-04-16T19:28:05.576Z,32.58
2023-04-16T19:30:32.007Z,30.15
2023-04-16T19:32:58.508Z,32.10
2023-04-16T19:35:25.729Z,28.73
2023-04-16T19:37:52.032Z,28.75
2023-04-16T19:40:18.630Z,31.25
2023-04-16T19:42:45.400Z,28.83
2023-04-16T19:45:11.765Z,30.42
2023-04-16T19:47:38.384Z,29.02
2023-04-16T19:50:04.932Z,34.08
2023-04-16T19:52:37.281Z,27.08
2023-04-16T19:55:03.926Z,30.77
2023-04-16T19:57:30.495Z,30.55
2023-04-16T19:59:57.317Z,28.45
2023-04-16T20:02:23.760Z,29.58
2023-04-16T20:04:50.752Z,31.23
2023-04-16T20:07:17.516Z,29.63
2023-04-16T20:09:43.925Z,31.20
2023-04-16T20:12:10.479Z,35.17
2023-04-16T20:14:36.831Z,31.95
2023-04-16T20:17:03.545Z,37.20
2023-04-16T20:19:33.682Z,33.00
2023-04-16T20:22:00.418Z,33.78
2023-04-16T20:24:26.891Z,36.05
2023-04-16T20:26:53.283Z,33.58
2023-04-16T20:29:19.636Z,34.00
2023-04-16T20:31:46.174Z,40.05
2023-04-16T20:34:12.824Z,36.72
2023-04-16T20:36:39.190Z,31.90
2023-04-16T20:39:07.183Z,39.33
2023-04-16T20:41:33.924Z,31.52
2023-04-16T20:44:05.311Z,33.83
2023-04-16T20:46:34.045Z,34.50
2023-04-16T20:49:01.123Z,37.97
2023-04-16T20:51:31.495Z,35.05
2023-04-16T20:53:58.119Z,38.38
2023-04-16T20:56:24.455Z,35.72
2023-04-16T20:58:53.222Z,36.30
2023-04-16T21:01:20.526Z,34.45
2023-04-16T21:03:47.126Z,31.63
2023-04-16T21:06:17.617Z,37.40
2023-04-16T21:08:43.945Z,32.03
2023-04-16T21:11:10.363Z,33.45
2023-04-16T21:13:36.677Z,34.03
2023-04-16T21:16:04.782Z,39.33
2023-04-16T21:18:31.222Z,40.38
2023-04-16T21:20:57.655Z,37.67
2023-04-16T21:23:23.951Z,34.63
2023-04-16T21:25:50.427Z,33.58
2023-04-16T21:28:16.947Z,37.70
2023-04-16T21:30:43.336Z,37.70
2023-04-16T21:33:11.779Z,36.70
2023-04-16T21:35:38.037Z,34.90
2023-04-16T21:38:04.399Z,40.28
2023-04-16T21:40:30.676Z,34.20
2023-04-16T21:42:57.116Z,36.20
2023-04-16T21:45:23.504Z,33.60
2023-04-16T21:47:49.854Z,32.58
2023-04-16T21:50:16.310Z,32.10
2023-04-16T21:52:46.690Z,33.13
2023-04-16T21:55:14.237Z,29.83
2023-04-16T21:57:40.730Z,31.55
2023-04-16T22:00:09.742Z,34.28
2023-04-16T22:02:36.319Z,32.13
2023-04-16T22:05:02.998Z,31.00
2023-04-16T22:07:30.509Z,35.72
2023-04-16T22:09:57.041Z,31.13
2023-04-16T22:12:23.397Z,35.00
2023-04-16T22:17:22.211Z,30.85
2023-04-16T22:19:49.266Z,36.05
2023-04-16T22:22:15.772Z,30.90
2023-04-16T22:24:42.192Z,34.38
2023-04-16T22:27:08.480Z,30.55
2023-04-16T22:29:34.789Z,31.52
2023-04-16T22:32:01.983Z,31.73
2023-04-16T22:34:28.402Z,37.28
2023-04-16T22:36:54.725Z,40.10
2023-04-16T22:39:21.074Z,36.53
2023-04-16T22:41:47.421Z,41.10
2023-04-16T22:44:13.963Z,39.53
2023-04-16T22:46:40.826Z,36.13
2023-04-16T22:49:07.096Z,38.40
2023-04-16T22:51:33.521Z,37.85
2023-04-16T22:53:59.819Z,35.00
2023-04-16T22:56:28.861Z,33.42
2023-04-16T22:58:55.417Z,30.60
2023-04-16T23:01:21.883Z,35.67
2023-04-16T23:03:48.388Z,38.45
2023-04-16T23:06:14.857Z,34.13
2023-04-16T23:08:41.324Z,39.65
2023-04-16T23:11:07.612Z,35.78
2023-04-16T23:13:33.993Z,34.42
2023-04-16T23:16:00.403Z,36.47
2023-04-16T23:18:26.834Z,39.40
2023-04-16T23:20:53.435Z,48.88
2023-04-16T23:23:19.868Z,45.30
2023-04-16T23:25:46.175Z,38.42
2023-04-16T23:28:12.523Z,43.55
2023-04-16T23:30:38.829Z,38.50
2023-04-16T23:33:05.352Z,40.35
2023-04-16T23:35:31.650Z,40.13
2023-04-16T23:37:57.978Z,41.10
2023-04-16T23:40:24.401Z,41.38
2023-04-16T23:42:50.959Z,41.72
2023-04-16T23:45:17.418Z,39.65
2023-04-16T23:47:44.366Z,37.50
2023-04-16T23:50:10.944Z,50.53
2023-04-16T23:52:37.401Z,43.50
2023-04-16T23:55:04.050Z,42.30
2023-04-16T23:57:30.611Z,38.60
2023-04-16T23:59:56.990Z,46.22
